createdAt,value
2022-10-18T00:00:15.872Z,98911.96
2022-10-18T00:03:05.301Z,98912.65
2022-10-18T00:05:36.272Z,98912.91
2022-10-18T00:08:06.061Z,98910.80
2022-10-18T00:10:37.188Z,98909.04
2022-10-18T00:13:07.357Z,98907.80
2022-10-18T00:15:38.366Z,98905.70
2022-10-18T00:18:09.365Z,98907.08
2022-10-18T00:20:42.634Z,98904.37
2022-10-18T00:23:14.438Z,98903.59
2022-10-18T00:25:44.806Z,98902.05
2022-10-18T00:28:16.656Z,98902.04
2022-10-18T00:30:47.034Z,98899.58
2022-10-18T00:33:17.749Z,98902.07
2022-10-18T00:35:46.982Z,98894.98
2022-10-18T00:38:15.661Z,98891.89
2022-10-18T00:40:45.017Z,98893.27
2022-10-18T00:43:19.343Z,98889.66
2022-10-18T00:45:52.583Z,98888.86
2022-10-18T00:48:23.069Z,98889.59
2022-10-18T00:50:55.012Z,98888.71
2022-10-18T00:53:24.611Z,98890.63
2022-10-18T00:55:54.091Z,98890.23
2022-10-18T00:58:23.705Z,98886.48
2022-10-18T01:00:54.634Z,98882.48
2022-10-18T01:03:24.649Z,98879.86
2022-10-18T01:05:54.454Z,98875.06
2022-10-18T01:08:34.897Z,98872.61
2022-10-18T01:11:51.715Z,98871.95
2022-10-18T01:15:02.994Z,98871.45
2022-10-18T01:17:41.749Z,98869.41
2022-10-18T01:20:31.060Z,98865.16
2022-10-18T01:23:09.464Z,98861.30
2022-10-18T01:26:18.782Z,98857.77
2022-10-18T01:29:06.730Z,98856.30
2022-10-18T01:32:04.921Z,98849.04
2022-10-18T01:34:37.737Z,98848.14
2022-10-18T01:37:14.923Z,98851.20
2022-10-18T01:39:47.832Z,98850.52
2022-10-18T01:42:21.307Z,98848.91
2022-10-18T01:44:55.739Z,98846.32
2022-10-18T01:47:29.469Z,98844.20
2022-10-18T01:50:06.476Z,98840.98
2022-10-18T01:52:37.035Z,98837.82
2022-10-18T01:55:08.871Z,98834.77
2022-10-18T01:57:47.259Z,98835.15
2022-10-18T02:00:37.527Z,98832.27
2022-10-18T02:03:22.277Z,98830.06
2022-10-18T02:06:22.148Z,98827.33
2022-10-18T02:09:29.876Z,98827.69
2022-10-18T02:12:04.274Z,98823.98
2022-10-18T02:14:36.081Z,98828.88
2022-10-18T02:17:10.377Z,98827.52
2022-10-18T02:19:51.391Z,98830.41
2022-10-18T02:22:26.964Z,98832.36
2022-10-18T02:25:03.560Z,98829.02
2022-10-18T02:27:34.379Z,98824.70
2022-10-18T02:30:05.129Z,98821.59
2022-10-18T02:33:01.908Z,98822.33
2022-10-18T02:35:37.708Z,98823.02
2022-10-18T02:38:10.727Z,98822.33
2022-10-18T02:40:40.965Z,98823.45
2022-10-18T02:43:11.140Z,98823.63
2022-10-18T02:45:40.545Z,98820.02
2022-10-18T02:48:10.994Z,98819.82
2022-10-18T02:50:41.386Z,98814.30
2022-10-18T02:53:11.809Z,98812.59
2022-10-18T02:55:42.120Z,98810.16
2022-10-18T02:58:10.777Z,98809.27
2022-10-18T03:00:39.920Z,98812.37
2022-10-18T03:03:10.248Z,98806.36
2022-10-18T03:05:39.211Z,98808.61
2022-10-18T03:08:09.431Z,98805.19
2022-10-18T03:10:39.048Z,98808.25
2022-10-18T03:13:08.351Z,98806.84
2022-10-18T03:15:37.659Z,98811.77
2022-10-18T03:18:06.857Z,98813.67
2022-10-18T03:20:36.166Z,98811.10
2022-10-18T03:23:06.198Z,98811.63
2022-10-18T03:25:35.578Z,98806.50
2022-10-18T03:28:04.861Z,98804.48
2022-10-18T03:30:34.044Z,98807.78
2022-10-18T03:33:02.738Z,98807.48
2022-10-18T03:35:32.666Z,98805.63
2022-10-18T03:38:01.731Z,98804.32
2022-10-18T03:43:00.997Z,98803.83
2022-10-18T03:45:31.446Z,98802.48
2022-10-18T03:48:00.739Z,98801.52
2022-10-18T03:50:30.472Z,98803.31
2022-10-18T03:52:59.749Z,98799.20
2022-10-18T03:55:28.795Z,98800.55
2022-10-18T03:57:59.082Z,98801.73
2022-10-18T04:00:28.154Z,98800.15
2022-10-18T04:02:56.905Z,98798.73
2022-10-18T04:05:28.070Z,98796.11
2022-10-18T04:07:57.370Z,98796.05
2022-10-18T04:10:26.461Z,98796.66
2022-10-18T04:12:55.271Z,98795.59
2022-10-18T04:15:25.074Z,98791.27
2022-10-18T04:17:53.608Z,98789.95
2022-10-18T04:20:22.758Z,98791.04
2022-10-18T04:22:52.526Z,98790.58
2022-10-18T04:25:23.065Z,98788.09
2022-10-18T04:27:53.070Z,98790.09
2022-10-18T04:30:22.468Z,98793.05
2022-10-18T04:32:51.271Z,98790.54
2022-10-18T04:35:24.881Z,98788.53
2022-10-18T04:37:54.482Z,98787.51
2022-10-18T04:40:23.874Z,98784.71
2022-10-18T04:42:53.300Z,98784.95
2022-10-18T04:45:21.954Z,98784.46
2022-10-18T04:47:52.084Z,98779.49
2022-10-18T04:50:21.173Z,98780.71
2022-10-18T04:55:24.245Z,98784.14
2022-10-18T04:57:53.759Z,98789.97
2022-10-18T05:00:22.925Z,98789.79
2022-10-18T05:02:58.278Z,98791.81
2022-10-18T05:05:49.594Z,98790.76
2022-10-18T05:08:17.405Z,98789.79
2022-10-18T05:10:45.999Z,98786.93
2022-10-18T05:13:14.666Z,98790.81
2022-10-18T05:15:43.265Z,98790.94
2022-10-18T05:18:11.883Z,98793.27
2022-10-18T05:20:40.831Z,98795.09
2022-10-18T05:23:11.462Z,98792.20
2022-10-18T05:25:41.738Z,98794.92
2022-10-18T05:28:34.449Z,98793.33
2022-10-18T05:31:08.346Z,98790.75
2022-10-18T05:33:37.435Z,98791.12
2022-10-18T05:36:06.855Z,98789.66
2022-10-18T05:41:06.059Z,98793.30
2022-10-18T05:43:35.431Z,98793.09
2022-10-18T05:46:07.206Z,98794.16
2022-10-18T05:48:38.328Z,98793.63
2022-10-18T05:51:07.234Z,98792.73
2022-10-18T05:53:37.540Z,98798.95
2022-10-18T05:56:08.009Z,98798.20
2022-10-18T05:58:37.128Z,98796.29
2022-10-18T06:01:07.002Z,98795.94
2022-10-18T06:03:35.744Z,98797.06
2022-10-18T06:06:07.368Z,98803.45
2022-10-18T06:08:36.857Z,98802.76
2022-10-18T06:11:10.437Z,98807.37
2022-10-18T06:13:50.600Z,98805.88
2022-10-18T06:16:21.601Z,98807.70
2022-10-18T06:18:55.654Z,98808.36
2022-10-18T06:21:25.640Z,98810.69
2022-10-18T06:23:55.344Z,98809.02
2022-10-18T06:26:24.673Z,98807.94
2022-10-18T06:28:53.314Z,98804.50
2022-10-18T06:31:22.302Z,98801.70
2022-10-18T06:33:51.113Z,98804.83
2022-10-18T06:36:24.366Z,98801.48
2022-10-18T06:38:56.119Z,98797.42
2022-10-18T06:41:24.754Z,98796.92
2022-10-18T06:43:57.399Z,98797.23
2022-10-18T06:46:26.859Z,98795.09
2022-10-18T06:48:55.746Z,98790.79
2022-10-18T06:51:24.300Z,98790.52
2022-10-18T06:54:06.197Z,98789.47
2022-10-18T06:56:41.372Z,98787.50
2022-10-18T06:59:10.360Z,98781.66
2022-10-18T07:01:40.880Z,98782.36
2022-10-18T07:04:09.773Z,98781.70
2022-10-18T07:06:38.873Z,98785.31
2022-10-18T07:09:07.875Z,98783.97
2022-10-18T07:23:58.886Z,98773.20
2022-10-18T07:26:31.518Z,98767.48
2022-10-18T07:29:06.853Z,98767.09
2022-10-18T07:31:36.510Z,98764.73
2022-10-18T07:34:06.521Z,98759.71
2022-10-18T07:36:35.437Z,98760.27
2022-10-18T07:39:04.816Z,98755.81
2022-10-18T07:41:34.351Z,98757.48
2022-10-18T07:44:03.755Z,98755.22
2022-10-18T07:46:32.390Z,98752.40
2022-10-18T07:49:01.003Z,98750.42
2022-10-18T07:51:32.947Z,98749.98
2022-10-18T07:54:01.918Z,98751.89
2022-10-18T07:56:30.640Z,98749.58
2022-10-18T07:58:59.045Z,98745.01
2022-10-18T08:01:27.657Z,98740.48
2022-10-18T08:03:56.587Z,98735.28
2022-10-18T08:06:25.297Z,98735.20
2022-10-18T08:08:54.102Z,98736.92
2022-10-18T08:11:25.144Z,98738.30
2022-10-18T08:13:55.021Z,98735.86
2022-10-18T08:19:01.378Z,98730.79
2022-10-18T08:21:29.916Z,98725.96
2022-10-18T08:23:58.512Z,98727.84
2022-10-18T08:26:27.047Z,98726.11
2022-10-18T08:29:10.415Z,98723.83
2022-10-18T08:31:44.430Z,98724.88
2022-10-18T08:34:17.304Z,98722.15
2022-10-18T08:36:48.268Z,98720.34
2022-10-18T08:39:16.896Z,98715.27
2022-10-18T08:41:51.318Z,98717.16
2022-10-18T08:44:32.436Z,98712.73
2022-10-18T08:47:11.153Z,98711.83
2022-10-18T08:49:51.102Z,98705.05
2022-10-18T08:55:24.847Z,98699.76
2022-10-18T08:57:53.939Z,98697.86
2022-10-18T09:00:25.369Z,98692.63
2022-10-18T09:03:15.156Z,98693.14
2022-10-18T09:06:10.371Z,98692.20
2022-10-18T09:09:24.659Z,98683.39
2022-10-18T09:12:26.462Z,98682.20
2022-10-18T09:15:07.321Z,98673.33
2022-10-18T09:17:47.892Z,98672.80
2022-10-18T09:20:24.540Z,98661.96
2022-10-18T09:23:20.506Z,98662.25
2022-10-18T09:26:01.318Z,98656.11
2022-10-18T09:29:00.378Z,98651.74
2022-10-18T09:31:35.007Z,98653.81
2022-10-18T09:34:12.751Z,98644.66
2022-10-18T09:36:42.200Z,98643.38
2022-10-18T09:39:22.841Z,98637.38
2022-10-18T09:41:58.370Z,98633.47
2022-10-18T09:44:37.045Z,98633.92
2022-10-18T09:50:24.468Z,98627.71
2022-10-18T09:53:18.502Z,98624.21
2022-10-18T09:56:10.557Z,98619.65
2022-10-18T09:58:48.687Z,98620.55
2022-10-18T10:01:22.584Z,98615.77
2022-10-18T10:03:52.079Z,98614.62
2022-10-18T10:06:34.950Z,98614.75
2022-10-18T10:09:17.857Z,98607.65
2022-10-18T10:11:51.822Z,98605.06
2022-10-18T10:14:27.556Z,98601.95
2022-10-18T10:16:57.644Z,98596.80
2022-10-18T10:19:38.375Z,98594.39
2022-10-18T10:22:11.007Z,98589.33
2022-10-18T10:24:54.092Z,98582.99
2022-10-18T10:27:31.614Z,98575.94
2022-10-18T10:30:07.126Z,98572.14
2022-10-18T10:32:48.114Z,98567.75
2022-10-18T10:35:55.812Z,98565.20
2022-10-18T10:38:29.423Z,98557.67
2022-10-18T10:40:58.938Z,98550.81
2022-10-18T10:43:38.241Z,98548.17
2022-10-18T10:46:14.902Z,98542.49
2022-10-18T10:48:48.301Z,98540.63
2022-10-18T10:51:29.115Z,98530.27
2022-10-18T10:54:16.743Z,98527.58
2022-10-18T10:57:03.384Z,98526.90
2022-10-18T10:59:42.721Z,98516.69
2022-10-18T11:02:14.283Z,98512.93
2022-10-18T11:04:42.952Z,98503.94
2022-10-18T11:07:29.283Z,98499.09
2022-10-18T11:10:10.039Z,98495.61
2022-10-18T11:12:48.172Z,98492.11
2022-10-18T11:15:32.825Z,98488.19
2022-10-18T11:18:01.492Z,98483.45
2022-10-18T11:20:33.180Z,98478.20
2022-10-18T11:23:17.698Z,98471.07
2022-10-18T11:26:00.744Z,98472.71
2022-10-18T11:28:51.207Z,98475.15
2022-10-18T11:31:40.123Z,98460.73
2022-10-18T11:34:37.398Z,98458.68
2022-10-18T11:37:29.083Z,98454.10
2022-10-18T11:40:02.287Z,98445.64
2022-10-18T11:42:36.702Z,98445.77
2022-10-18T11:45:11.620Z,98440.73
2022-10-18T11:47:55.919Z,98433.91
2022-10-18T11:50:52.596Z,98429.67
2022-10-18T11:53:30.717Z,98422.89
2022-10-18T11:56:28.491Z,98419.33
2022-10-18T11:59:29.225Z,98411.18
2022-10-18T12:02:23.789Z,98406.41
2022-10-18T12:05:21.977Z,98398.98
2022-10-18T12:08:18.018Z,98398.05
2022-10-18T12:11:04.623Z,98389.42
2022-10-18T12:13:45.163Z,98391.21
2022-10-18T12:16:14.751Z,98386.96
2022-10-18T12:21:25.713Z,98382.59
2022-10-18T12:24:11.803Z,98380.85
2022-10-18T12:26:40.504Z,98380.98
2022-10-18T12:29:30.266Z,98378.60
2022-10-18T12:32:31.646Z,98372.68
2022-10-18T12:35:07.082Z,98364.38
2022-10-18T12:37:50.937Z,98365.08
2022-10-18T12:40:48.709Z,98361.08
2022-10-18T12:43:36.655Z,98357.23
2022-10-18T12:46:13.104Z,98354.04
2022-10-18T12:48:48.984Z,98352.48
2022-10-18T12:51:22.124Z,98348.62
2022-10-18T12:54:02.636Z,98348.62
2022-10-18T12:56:31.470Z,98346.48
2022-10-18T12:59:15.385Z,98339.19
2022-10-18T13:01:53.113Z,98340.20
2022-10-18T13:04:27.410Z,98334.98
2022-10-18T13:06:58.764Z,98334.92
2022-10-18T13:09:37.971Z,98331.10
2022-10-18T13:12:09.841Z,98323.52
2022-10-18T13:15:25.394Z,98321.23
2022-10-18T13:18:31.358Z,98312.81
2022-10-18T13:21:14.662Z,98309.49
2022-10-18T13:23:50.810Z,98307.59
2022-10-18T13:26:34.480Z,98305.33
2022-10-18T13:29:54.141Z,98300.59
2022-10-18T13:32:47.164Z,98293.92
2022-10-18T13:35:54.877Z,98290.23
2022-10-18T13:38:47.364Z,98286.42
2022-10-18T13:41:28.327Z,98281.80
2022-10-18T13:44:37.801Z,98280.05
2022-10-18T13:47:07.255Z,98277.14
2022-10-18T13:50:03.910Z,98276.39
2022-10-18T13:52:47.943Z,98271.34
2022-10-18T13:55:36.277Z,98273.48
2022-10-18T13:58:10.593Z,98266.36
2022-10-18T14:01:00.952Z,98264.88
2022-10-18T14:03:56.081Z,98255.94
2022-10-18T14:06:30.157Z,98252.33
2022-10-18T14:09:26.289Z,98252.85
2022-10-18T14:12:17.413Z,98249.04
2022-10-18T14:14:54.256Z,98247.66
2022-10-18T14:17:45.629Z,98243.23
2022-10-18T14:20:15.153Z,98240.50
2022-10-18T14:22:52.432Z,98233.64
2022-10-18T14:25:21.244Z,98232.70
2022-10-18T14:28:02.592Z,98232.50
2022-10-18T14:30:31.312Z,98231.06
2022-10-18T14:33:00.024Z,98228.91
2022-10-18T14:35:33.478Z,98229.28
2022-10-18T14:38:03.291Z,98230.91
2022-10-18T14:40:34.143Z,98226.48
2022-10-18T14:43:10.697Z,98220.83
2022-10-18T14:45:40.699Z,98219.61
2022-10-18T14:48:22.267Z,98218.25
2022-10-18T14:50:59.546Z,98222.30
2022-10-18T14:53:34.878Z,98218.94
2022-10-18T14:56:04.824Z,98216.78
2022-10-18T14:58:36.614Z,98212.28
2022-10-18T15:01:05.644Z,98207.89
2022-10-18T15:03:36.322Z,98208.96
2022-10-18T15:06:06.145Z,98207.34
2022-10-18T15:08:40.910Z,98210.95
2022-10-18T15:11:14.232Z,98212.02
2022-10-18T15:13:56.968Z,98210.33
2022-10-18T15:16:30.817Z,98209.55
2022-10-18T15:19:21.997Z,98206.10
2022-10-18T15:22:08.009Z,98206.87
2022-10-18T15:24:42.383Z,98199.36
2022-10-18T15:27:26.523Z,98195.55
2022-10-18T15:29:55.626Z,98199.94
2022-10-18T15:32:31.909Z,98199.61
2022-10-18T15:35:10.435Z,98201.43
2022-10-18T15:37:44.949Z,98199.27
2022-10-18T15:40:34.363Z,98196.23
2022-10-18T15:43:06.716Z,98195.33
2022-10-18T15:45:38.168Z,98199.11
2022-10-18T15:48:06.645Z,98195.27
2022-10-18T15:50:52.090Z,98194.47
2022-10-18T15:53:21.138Z,98191.17
2022-10-18T15:55:55.658Z,98197.11
2022-10-18T15:58:44.439Z,98196.13
2022-10-18T16:01:22.098Z,98199.13
2022-10-18T16:03:52.299Z,98197.66
2022-10-18T16:06:20.740Z,98201.47
2022-10-18T16:08:52.040Z,98206.48
2022-10-18T16:11:24.018Z,98207.82
2022-10-18T16:13:56.453Z,98206.77
2022-10-18T16:16:29.656Z,98205.42
2022-10-18T16:18:58.309Z,98205.67
2022-10-18T16:21:39.874Z,98205.42
2022-10-18T16:24:08.669Z,98206.63
2022-10-18T16:26:38.289Z,98203.67
2022-10-18T16:29:06.955Z,98200.80
2022-10-18T16:31:35.519Z,98200.85
2022-10-18T16:34:04.753Z,98200.59
2022-10-18T16:36:34.528Z,98195.22
2022-10-18T16:39:09.391Z,98194.25
2022-10-18T16:41:38.350Z,98187.17
2022-10-18T16:44:06.700Z,98186.30
2022-10-18T16:46:35.823Z,98191.30
2022-10-18T16:49:05.331Z,98191.72
2022-10-18T16:51:34.013Z,98194.05
2022-10-18T16:54:02.331Z,98192.91
2022-10-18T16:56:32.651Z,98192.50
2022-10-18T16:59:02.467Z,98191.99
2022-10-18T17:01:30.828Z,98193.02
2022-10-18T17:03:59.212Z,98192.84
2022-10-18T17:06:29.886Z,98189.05
2022-10-18T17:08:58.507Z,98185.34
2022-10-18T17:11:28.587Z,98189.79
2022-10-18T17:13:57.078Z,98193.20
2022-10-18T17:16:32.239Z,98190.14
2022-10-18T17:19:04.201Z,98190.58
2022-10-18T17:21:33.807Z,98185.48
2022-10-18T17:24:03.423Z,98183.92
2022-10-18T17:26:32.553Z,98185.39
2022-10-18T17:29:06.401Z,98184.98
2022-10-18T17:31:35.989Z,98185.02
2022-10-18T17:34:04.812Z,98187.91
2022-10-18T17:36:33.888Z,98186.95
2022-10-18T17:39:02.460Z,98186.81
2022-10-18T17:41:30.847Z,98185.80
2022-10-18T17:43:59.140Z,98183.00
2022-10-18T17:46:28.101Z,98180.20
2022-10-18T17:48:56.692Z,98178.17
2022-10-18T17:51:24.998Z,98178.98
2022-10-18T17:53:54.094Z,98180.06
2022-10-18T17:56:22.582Z,98179.86
2022-10-18T17:58:51.765Z,98179.44
2022-10-18T18:01:23.391Z,98180.17
2022-10-18T18:03:58.176Z,98174.30
2022-10-18T18:06:34.139Z,98172.59
2022-10-18T18:09:14.466Z,98172.08
2022-10-18T18:11:44.890Z,98172.26
2022-10-18T18:14:13.577Z,98165.42
2022-10-18T18:16:47.584Z,98162.23
2022-10-18T18:19:19.196Z,98161.45
2022-10-18T18:21:48.437Z,98160.48
2022-10-18T18:24:18.046Z,98161.22
2022-10-18T18:26:46.391Z,98158.29
2022-10-18T18:29:14.777Z,98154.73
2022-10-18T18:31:44.042Z,98152.52
2022-10-18T18:34:14.383Z,98153.08
2022-10-18T18:36:44.927Z,98151.43
2022-10-18T18:39:22.184Z,98153.23
2022-10-18T18:41:53.097Z,98156.32
2022-10-18T18:44:22.890Z,98152.96
2022-10-18T18:46:51.783Z,98150.88
2022-10-18T18:49:20.435Z,98150.91
2022-10-18T18:51:48.724Z,98145.00
2022-10-18T18:54:19.827Z,98147.94
2022-10-18T18:56:52.142Z,98145.10
2022-10-18T18:59:24.017Z,98139.85
2022-10-18T19:01:52.962Z,98140.05
2022-10-18T19:04:21.689Z,98133.16
2022-10-18T19:06:50.106Z,98131.06
2022-10-18T19:09:20.732Z,98129.20
2022-10-18T19:11:52.723Z,98133.79
2022-10-18T19:16:59.472Z,98131.62
2022-10-18T19:19:30.241Z,98129.73
2022-10-18T19:22:01.322Z,98127.20
2022-10-18T19:24:30.572Z,98131.80
2022-10-18T19:27:02.492Z,98128.77
2022-10-18T19:29:33.282Z,98125.73
2022-10-18T19:32:04.867Z,98120.64
2022-10-18T19:34:34.819Z,98121.96
2022-10-18T19:37:03.999Z,98120.98
2022-10-18T19:39:35.038Z,98119.56
2022-10-18T19:42:09.402Z,98109.89
2022-10-18T19:44:38.009Z,98110.14
2022-10-18T19:47:09.185Z,98106.66
2022-10-18T19:49:39.038Z,98106.30
2022-10-18T19:52:07.585Z,98105.62
2022-10-18T19:54:36.084Z,98102.85
2022-10-18T19:57:04.806Z,98100.63
2022-10-18T19:59:34.518Z,98102.45
2022-10-18T20:02:04.934Z,98097.39
2022-10-18T20:04:35.459Z,98099.41
2022-10-18T20:07:04.169Z,98096.58
2022-10-18T20:09:32.817Z,98099.27
2022-10-18T20:12:01.393Z,98101.01
2022-10-18T20:14:30.061Z,98097.70
2022-10-18T20:16:58.548Z,98096.67
2022-10-18T20:19:27.329Z,98097.14
2022-10-18T20:21:57.890Z,98094.12
2022-10-18T20:24:26.430Z,98093.96
2022-10-18T20:26:54.968Z,98087.39
2022-10-18T20:29:25.738Z,98083.52
2022-10-18T20:31:55.962Z,98081.44
2022-10-18T20:34:26.313Z,98075.56
2022-10-18T20:36:55.590Z,98072.60
2022-10-18T20:39:24.303Z,98069.36
2022-10-18T20:41:52.766Z,98069.32
2022-10-18T20:44:22.851Z,98068.08
2022-10-18T20:46:51.579Z,98066.19
2022-10-18T20:49:20.097Z,98064.45
2022-10-18T20:51:49.045Z,98061.92
2022-10-18T20:54:18.062Z,98058.22
2022-10-18T20:56:46.598Z,98052.57
2022-10-18T20:59:15.202Z,98049.48
2022-10-18T21:01:43.833Z,98046.58
2022-10-18T21:04:12.335Z,98045.87
2022-10-18T21:06:43.877Z,98041.33
2022-10-18T21:09:18.442Z,98039.42
2022-10-18T21:11:51.776Z,98039.15
2022-10-18T21:14:22.876Z,98039.92
2022-10-18T21:16:53.407Z,98043.27
2022-10-18T21:19:29.127Z,98042.39
2022-10-18T21:22:01.030Z,98038.90
2022-10-18T21:24:31.451Z,98036.48
2022-10-18T21:27:00.595Z,98034.17
2022-10-18T21:29:31.175Z,98034.05
2022-10-18T21:32:01.289Z,98030.27
2022-10-18T21:34:31.105Z,98028.58
2022-10-18T21:37:00.714Z,98022.94
2022-10-18T21:39:30.322Z,98019.61
2022-10-18T21:41:59.022Z,98012.48
2022-10-18T21:44:27.683Z,98013.98
2022-10-18T21:46:57.306Z,98008.55
2022-10-18T21:49:31.561Z,98011.17
2022-10-18T21:52:03.962Z,98007.34
2022-10-18T21:54:33.008Z,98004.35
2022-10-18T21:57:02.022Z,98002.83
2022-10-18T21:59:30.874Z,98000.91
2022-10-18T22:02:01.631Z,98002.11
2022-10-18T22:04:35.840Z,97998.40
2022-10-18T22:07:05.223Z,97990.96
2022-10-18T22:09:34.387Z,97989.44
2022-10-18T22:12:03.163Z,97989.46
2022-10-18T22:14:32.516Z,97984.24
2022-10-18T22:17:01.551Z,97982.25
2022-10-18T22:19:30.351Z,97982.09
2022-10-18T22:21:59.262Z,97988.05
2022-10-18T22:24:28.111Z,97986.90
2022-10-18T22:26:58.161Z,97984.89
2022-10-18T22:29:27.213Z,97988.03
2022-10-18T22:31:56.493Z,97990.69
2022-10-18T22:34:28.082Z,97987.27
2022-10-18T22:36:57.405Z,97989.13
2022-10-18T22:39:27.256Z,97985.98
2022-10-18T22:41:57.817Z,97982.52
2022-10-18T22:44:27.193Z,97976.91
2022-10-18T22:46:56.314Z,97972.92
2022-10-18T22:49:25.697Z,97976.36
2022-10-18T22:51:54.928Z,97976.46
2022-10-18T22:54:23.645Z,97974.04
2022-10-18T22:56:52.741Z,97976.13
2022-10-18T22:59:21.782Z,97977.32
2022-10-18T23:01:50.683Z,97973.27
2022-10-18T23:04:20.477Z,97970.15
2022-10-18T23:06:49.816Z,97963.88
2022-10-18T23:09:19.989Z,97958.73
2022-10-18T23:11:51.982Z,97959.40
2022-10-18T23:14:21.681Z,97956.25
2022-10-18T23:16:51.458Z,97949.04
2022-10-18T23:19:20.832Z,97942.52
2022-10-18T23:21:50.562Z,97937.34
2022-10-18T23:24:21.214Z,97935.48
2022-10-18T23:26:50.993Z,97936.27
2022-10-18T23:29:19.835Z,97937.27
2022-10-18T23:31:49.141Z,97935.05
2022-10-18T23:34:18.215Z,97933.44
2022-10-18T23:36:48.049Z,97935.70
2022-10-18T23:39:19.763Z,97936.34
2022-10-18T23:41:51.987Z,97935.92
2022-10-18T23:44:23.228Z,97940.57
2022-10-18T23:46:53.587Z,97932.62
2022-10-18T23:49:23.863Z,97935.02
2022-10-18T23:51:54.450Z,97933.59
2022-10-18T23:54:24.045Z,97929.27
2022-10-18T23:56:53.358Z,97930.59
2022-10-18T23:59:22.685Z,97926.13
